KCBM/CBM METAR and TAF weather

Enter ICAO airport designator
Station Type Date Time Source
KCBM METAR 2019/08/19 22:32 UTC NOAA

KCBM 192232Z AUTO 10013G19KT 10SM TS SCT034 31/22 A3001 RMK AO2 TSB07E27TSB32 SLP163


Station Type Date Time Source
KCBM Decoded METAR 2019/08/19 22:32 UTC NOAA

Columbus Air Force Base, MS, United States (KCBM) 33-39N 088-27W
Aug 19, 2019 - 06:32 PM EDT / 2019.08.19 2232 UTC
Wind: from the E (100 degrees) at 15 MPH (13 KT) gusting to 22 MPH (19 KT):0
Visibility: 10 mile(s):0
Sky conditions: partly cloudy
Weather: thunder
Temperature: 87 F (31 C)
Heat index: 92.3 F (33.5 C):1
Dew Point: 71 F (22 C)
Relative Humidity: 58%
Pressure (altimeter): 30.01 in. Hg (1016 hPa)
ob: KCBM 192232Z AUTO 10013G19KT 10SM TS SCT034 31/22 A3001 RMK AO2 TSB07E27TSB32 SLP163
cycle: 22

Station Type Date Time Source
KCBM TAF 2019/08/19 22:12 UTC NOAA

TAF TAF
AMD KCBM 192200Z 1922/2023 27006KT 9999 SCT050 SCT080 BKN110 QNH2998INS
TEMPO 1922/1924 VRB20G35KT 4800 TSRA BKN050CB
BECMG 2020/2021 16006KT 9999 BKN050 BKN080 QNH3000INS TX34/1922Z TN23/2011Z

Example: see airport list